Time,TemperatureF,DewpointF,PressureIn,WindDirection,WindDirectionDegrees,WindSpeedMPH,WindSpeedGustMPH,Humidity,HourlyPrecipIn,Conditions,Clouds,dailyrainin,SoftwareType,DateUTC
2013-06-13 00:00:00,56.7,55.8,29.57,SE,143,0.0,0.0,97,0.00,,,0.00,VWS V14.00,2013-06-13 04:00:00,
2013-06-13 00:01:00,52.9,50.8,29.80,SSE,148,0.0,6.9,93,0.00,,,0.00,VWS V14.00,2013-06-13 04:01:00,
2013-06-13 00:02:00,53.8,51.8,29.80,SSE,159,0.0,4.3,93,0.00,,,0.00,VWS V14.00,2013-06-13 04:02:00,
2013-06-13 00:04:00,52.7,50.7,29.79,SSE,158,0.0,6.9,93,0.00,,,0.00,VWS V14.00,2013-06-13 04:04:00,
2013-06-13 00:05:00,53.8,51.8,29.80,SSE,156,0.0,4.8,93,0.00,,,0.00,VWS V14.00,2013-06-13 04:05:00,
2013-06-13 00:07:00,52.7,50.7,29.79,SSE,158,0.0,6.9,93,0.00,,,0.00,VWS V14.00,2013-06-13 04:07:00,
2013-06-13 00:08:00,53.8,51.7,29.80,SSE,156,0.0,0.0,93,0.00,,,0.00,VWS V14.00,2013-06-13 04:08:00,
2013-06-13 00:10:00,52.6,50.6,29.79,SSE,158,0.0,6.9,93,0.00,,,0.00,VWS V14.00,2013-06-13 04:10:00,
2013-06-13 00:13:00,52.5,50.5,29.79,SE,142,3.3,6.9,93,0.00,,,0.00,VWS V14.00,2013-06-13 04:13:00,
2013-06-13 00:14:00,53.7,51.7,29.80,SSE,156,0.0,0.0,93,0.00,,,0.00,VWS V14.00,2013-06-13 04:14:00,
2013-06-13 00:16:00,52.3,50.3,29.79,South,172,5.2,6.9,93,0.00,,,0.00,VWS V14.00,2013-06-13 04:16:00,
2013-06-13 00:19:00,52.3,50.3,29.79,SSE,149,4.2,7.8,93,0.00,,,0.00,VWS V14.00,2013-06-13 04:19:00,
2013-06-13 00:20:00,53.7,51.7,29.80,SE,146,0.0,4.2,93,0.00,,,0.00,VWS V14.00,2013-06-13 04:20:00,
2013-06-13 00:22:00,52.2,50.3,29.78,SSE,150,0.0,7.8,93,0.00,,,0.00,VWS V14.00,2013-06-13 04:22:00,
2013-06-13 00:23:00,53.6,51.6,29.80,SE,146,0.0,4.2,93,0.00,,,0.00,VWS V14.00,2013-06-13 04:23:00,
2013-06-13 00:25:00,53.5,51.5,29.80,SE,146,0.0,4.2,93,0.00,,,0.00,VWS V14.00,2013-06-13 04:25:00,
2013-06-13 00:28:00,52.1,50.3,29.78,SSE,163,0.0,7.8,94,0.00,,,0.00,VWS V14.00,2013-06-13 04:28:00,
2013-06-13 00:30:00,56.9,56.1,29.58,SE,143,0.0,0.0,97,0.00,,,0.00,VWS V14.00,2013-06-13 04:30:00,
2013-06-13 00:31:00,51.8,50.0,29.78,SSE,163,0.0,7.8,94,0.00,,,0.00,VWS V14.00,2013-06-13 04:31:00,
2013-06-13 00:32:00,53.5,51.5,29.80,SE,146,0.0,0.0,93,0.00,,,0.00,VWS V14.00,2013-06-13 04:32:00,
2013-06-13 00:34:00,51.9,50.2,29.78,SSE,165,7.0,7.8,94,0.00,,,0.00,VWS V14.00,2013-06-13 04:34:00,
2013-06-13 00:37:00,51.7,50.0,29.77,SSE,148,3.5,7.8,94,0.00,,,0.00,VWS V14.00,2013-06-13 04:37:00,
2013-06-13 00:38:00,53.5,51.4,29.80,SE,146,0.0,0.0,92,0.00,,,0.00,VWS V14.00,2013-06-13 04:38:00,
2013-06-13 00:40:00,51.8,50.1,29.77,SSE,163,0.0,7.8,94,0.00,,,0.00,VWS V14.00,2013-06-13 04:40:00,
2013-06-13 00:43:00,51.7,50.1,29.77,SSE,163,0.0,7.8,94,0.00,,,0.00,VWS V14.00,2013-06-13 04:43:00,
2013-06-13 00:44:00,53.2,51.0,29.80,SSE,159,0.0,5.7,92,0.00,,,0.00,VWS V14.00,2013-06-13 04:44:00,
2013-06-13 00:46:00,51.6,50.0,29.78,SSE,163,0.0,7.8,94,0.00,,,0.00,VWS V14.00,2013-06-13 04:46:00,
2013-06-13 00:49:00,51.7,50.2,29.78,SSE,163,0.0,7.8,94,0.00,,,0.00,VWS V14.00,2013-06-13 04:49:00,
2013-06-13 00:50:00,53.2,51.1,29.80,SSE,156,3.5,5.2,92,0.00,,,0.00,VWS V14.00,2013-06-13 04:50:00,
2013-06-13 00:52:00,51.5,50.0,29.78,SSE,163,3.4,7.8,94,0.00,,,0.00,VWS V14.00,2013-06-13 04:52:00,
2013-06-13 00:55:00,51.6,50.1,29.78,SSE,156,0.0,7.8,95,0.00,,,0.00,VWS V14.00,2013-06-13 04:55:00,
2013-06-13 00:58:00,51.3,49.8,29.78,SSE,156,0.0,7.8,95,0.00,,,0.00,VWS V14.00,2013-06-13 04:58:00,
2013-06-13 01:01:00,51.4,50.0,29.78,SSE,156,0.0,7.8,95,0.00,,,0.00,VWS V14.00,2013-06-13 05:01:00,
2013-06-13 01:04:00,51.6,50.2,29.78,SSE,156,0.0,7.8,95,0.00,,,0.00,VWS V14.00,2013-06-13 05:04:00,
2013-06-13 01:07:00,51.3,50.0,29.78,SSE,156,0.0,7.8,95,0.00,,,0.00,VWS V14.00,2013-06-13 05:07:00,
2013-06-13 01:10:00,51.5,50.2,29.78,SSE,158,0.0,7.8,95,0.00,,,0.00,VWS V14.00,2013-06-13 05:10:00,
2013-06-13 01:13:00,51.6,50.2,29.78,SSE,158,0.0,7.8,95,0.00,,,0.00,VWS V14.00,2013-06-13 05:13:00,
2013-06-13 01:16:00,51.5,50.2,29.78,SSE,158,0.0,7.8,95,0.00,,,0.00,VWS V14.00,2013-06-13 05:16:00,
2013-06-13 01:19:00,51.5,50.2,29.78,SSE,158,0.0,7.8,95,0.00,,,0.00,VWS V14.00,2013-06-13 05:19:00,
2013-06-13 01:22:00,51.4,50.0,29.78,SSE,158,0.0,7.8,95,0.00,,,0.00,VWS V14.00,2013-06-13 05:22:00,
2013-06-13 01:25:00,51.4,50.0,29.79,SSE,153,2.8,7.8,95,0.00,,,0.00,VWS V14.00,2013-06-13 05:25:00,
2013-06-13 01:28:00,51.4,50.1,29.79,SSE,155,0.0,7.8,95,0.00,,,0.00,VWS V14.00,2013-06-13 05:28:00,
2013-06-13 01:31:00,51.3,50.0,29.79,SSE,155,0.0,7.8,95,0.00,,,0.00,VWS V14.00,2013-06-13 05:31:00,
2013-06-13 01:34:00,51.3,50.0,29.78,SSE,155,0.0,7.8,95,0.00,,,0.00,VWS V14.00,2013-06-13 05:34:00,
2013-06-13 01:37:00,51.3,50.1,29.77,SSE,148,3.4,7.8,96,0.00,,,0.00,VWS V14.00,2013-06-13 05:37:00,
2013-06-13 01:40:00,51.2,50.0,29.77,South,180,7.6,7.8,96,0.00,,,0.00,VWS V14.00,2013-06-13 05:40:00,
2013-06-13 01:43:00,51.2,50.0,29.77,SSE,163,5.4,7.8,96,0.00,,,0.00,VWS V14.00,2013-06-13 05:43:00,
2013-06-13 01:46:00,51.1,50.0,29.77,South,170,0.0,7.8,96,0.00,,,0.00,VWS V14.00,2013-06-13 05:46:00,
2013-06-13 01:49:00,51.3,50.2,29.77,South,170,0.0,7.8,96,0.00,,,0.00,VWS V14.00,2013-06-13 05:49:00,
2013-06-13 01:52:00,51.1,50.0,29.76,South,169,3.5,7.8,96,0.00,,,0.00,VWS V14.00,2013-06-13 05:52:00,
2013-06-13 01:55:00,51.1,50.0,29.76,SE,139,3.5,7.8,96,0.00,,,0.00,VWS V14.00,2013-06-13 05:55:00,
2013-06-13 01:58:00,51.2,50.0,29.76,SSE,148,0.0,7.8,96,0.00,,,0.00,VWS V14.00,2013-06-13 05:58:00,
2013-06-13 02:01:00,51.0,49.8,29.76,SSE,148,0.0,7.8,96,0.00,,,0.00,VWS V14.00,2013-06-13 06:01:00,
2013-06-13 02:04:00,50.9,49.7,29.76,SE,143,0.0,7.8,96,0.00,,,0.00,VWS V14.00,2013-06-13 06:04:00,
2013-06-13 02:07:00,50.9,49.6,29.76,SE,143,0.0,7.8,95,0.00,,,0.00,VWS V14.00,2013-06-13 06:07:00,
2013-06-13 02:10:00,50.7,49.4,29.76,SSE,160,3.3,9.2,95,0.00,,,0.00,VWS V14.00,2013-06-13 06:10:00,
2013-06-13 02:13:00,50.8,49.5,29.76,SE,129,2.9,9.2,95,0.00,,,0.00,VWS V14.00,2013-06-13 06:13:00,
2013-06-13 02:16:00,50.6,49.4,29.76,SSE,159,4.2,9.2,96,0.00,,,0.00,VWS V14.00,2013-06-13 06:16:00,
2013-06-13 02:19:00,50.5,49.3,29.75,SE,138,0.0,9.2,96,0.00,,,0.00,VWS V14.00,2013-06-13 06:19:00,
2013-06-13 02:22:00,50.3,49.2,29.75,South,173,4.8,9.2,96,0.00,,,0.00,VWS V14.00,2013-06-13 06:22:00,
2013-06-13 02:25:00,50.3,49.2,29.75,SSE,159,7.7,9.2,96,0.00,,,0.00,VWS V14.00,2013-06-13 06:25:00,
2013-06-13 02:28:00,50.3,49.2,29.74,SE,135,0.0,9.2,96,0.00,,,0.00,VWS V14.00,2013-06-13 06:28:00,
2013-06-13 02:31:00,50.2,49.2,29.74,SSE,150,0.0,9.2,96,0.00,,,0.00,VWS V14.00,2013-06-13 06:31:00,
2013-06-13 02:34:00,50.3,49.3,29.75,SSE,162,4.3,9.2,96,0.00,,,0.00,VWS V14.00,2013-06-13 06:34:00,
2013-06-13 02:37:00,50.2,49.3,29.74,SSE,159,0.0,9.2,97,0.00,,,0.00,VWS V14.00,2013-06-13 06:37:00,
2013-06-13 02:40:00,50.3,49.5,29.75,SE,124,0.0,9.2,97,0.00,,,0.00,VWS V14.00,2013-06-13 06:40:00,
2013-06-13 02:43:00,50.3,49.5,29.76,SSE,167,0.0,9.2,97,0.00,,,0.00,VWS V14.00,2013-06-13 06:43:00,
2013-06-13 02:46:00,50.2,49.5,29.75,SSE,167,0.0,9.2,97,0.00,,,0.00,VWS V14.00,2013-06-13 06:46:00,
2013-06-13 02:49:00,50.2,49.4,29.75,SSE,167,0.0,9.2,97,0.00,,,0.00,VWS V14.00,2013-06-13 06:49:00,
2013-06-13 02:52:00,50.3,49.5,29.75,SE,131,0.0,9.2,97,0.00,,,0.00,VWS V14.00,2013-06-13 06:52:00,
2013-06-13 02:55:00,50.2,49.4,29.74,SSE,158,0.0,9.2,97,0.00,,,0.00,VWS V14.00,2013-06-13 06:55:00,
2013-06-13 02:58:00,50.3,49.5,29.75,SSE,155,0.0,9.2,97,0.00,,,0.00,VWS V14.00,2013-06-13 06:58:00,
2013-06-13 03:01:00,50.3,49.6,29.75,ESE,121,0.0,9.2,97,0.00,,,0.00,VWS V14.00,2013-06-13 07:01:00,
2013-06-13 03:04:00,50.3,49.6,29.74,South,179,0.0,9.2,98,0.00,,,0.00,VWS V14.00,2013-06-13 07:04:00,
2013-06-13 03:07:00,50.4,49.8,29.75,South,180,0.0,9.2,98,0.00,,,0.00,VWS V14.00,2013-06-13 07:07:00,
2013-06-13 03:10:00,50.5,49.8,29.76,South,184,2.6,9.2,98,0.00,,,0.00,VWS V14.00,2013-06-13 07:10:00,
2013-06-13 03:13:00,50.4,49.7,29.76,SSE,158,4.3,9.2,98,0.00,,,0.00,VWS V14.00,2013-06-13 07:13:00,
2013-06-13 03:16:00,50.4,49.7,29.75,SE,132,0.0,9.2,97,0.00,,,0.00,VWS V14.00,2013-06-13 07:16:00,
2013-06-13 03:19:00,50.2,49.5,29.75,SE,132,0.0,9.2,97,0.00,,,0.00,VWS V14.00,2013-06-13 07:19:00,
2013-06-13 03:22:00,50.3,49.6,29.75,SE,132,0.0,9.2,97,0.00,,,0.00,VWS V14.00,2013-06-13 07:22:00,
2013-06-13 03:25:00,50.1,49.4,29.76,South,179,0.0,9.2,97,0.00,,,0.00,VWS V14.00,2013-06-13 07:25:00,
2013-06-13 03:28:00,50.1,49.4,29.75,SE,145,0.0,9.2,98,0.00,,,0.00,VWS V14.00,2013-06-13 07:28:00,
2013-06-13 03:31:00,50.1,49.5,29.74,South,179,4.3,9.2,98,0.00,,,0.00,VWS V14.00,2013-06-13 07:31:00,
2013-06-13 03:34:00,50.1,49.5,29.74,SSE,148,0.0,9.2,98,0.00,,,0.00,VWS V14.00,2013-06-13 07:34:00,
2013-06-13 03:37:00,50.1,49.5,29.74,SSE,148,0.0,9.2,98,0.00,,,0.00,VWS V14.00,2013-06-13 07:37:00,
2013-06-13 03:40:00,50.2,49.6,29.74,SSE,160,6.2,9.2,98,0.00,,,0.00,VWS V14.00,2013-06-13 07:40:00,
2013-06-13 03:43:00,50.1,49.5,29.75,South,174,4.7,9.2,98,0.00,,,0.00,VWS V14.00,2013-06-13 07:43:00,
2013-06-13 03:46:00,49.9,49.2,29.74,South,174,8.6,9.4,97,0.00,,,0.00,VWS V14.00,2013-06-13 07:46:00,
2013-06-13 03:49:00,49.8,49.1,29.74,South,179,4.7,9.4,97,0.00,,,0.00,VWS V14.00,2013-06-13 07:49:00,
2013-06-13 03:52:00,49.7,49.0,29.75,SSE,167,7.1,9.4,97,0.00,,,0.00,VWS V14.00,2013-06-13 07:52:00,
2013-06-13 03:55:00,49.7,49.0,29.74,SSE,153,5.5,9.4,97,0.00,,,0.00,VWS V14.00,2013-06-13 07:55:00,
2013-06-13 03:58:00,49.5,48.8,29.74,SSE,165,5.7,9.6,97,0.00,,,0.00,VWS V14.00,2013-06-13 07:58:00,
2013-06-13 04:01:00,49.6,49.0,29.74,SSE,160,4.7,9.6,98,0.00,,,0.00,VWS V14.00,2013-06-13 08:01:00,
2013-06-13 04:04:00,49.4,48.8,29.75,SE,146,0.0,9.6,98,0.00,,,0.00,VWS V14.00,2013-06-13 08:04:00,
2013-06-13 04:07:00,49.5,48.9,29.75,SSE,163,4.8,9.6,98,0.00,,,0.00,VWS V14.00,2013-06-13 08:07:00,
2013-06-13 04:13:00,49.5,49.0,29.74,SE,145,0.0,9.6,98,0.00,,,0.00,VWS V14.00,2013-06-13 08:13:00,
2013-06-13 04:23:00,49.5,49.0,29.74,SSE,152,3.5,9.6,98,0.00,,,0.00,VWS V14.00,2013-06-13 08:23:00,
2013-06-13 04:26:00,49.5,49.0,29.74,SSE,160,0.0,9.6,98,0.00,,,0.00,VWS V14.00,2013-06-13 08:26:00,
2013-06-13 04:29:00,49.4,48.9,29.74,SSE,153,4.5,9.6,98,0.00,,,0.00,VWS V14.00,2013-06-13 08:29:00,
2013-06-13 04:35:00,49.6,49.2,29.74,South,169,4.2,9.6,98,0.00,,,0.00,VWS V14.00,2013-06-13 08:35:00,
2013-06-13 04:41:00,49.5,49.1,29.74,SSE,153,3.4,9.6,99,0.00,,,0.00,VWS V14.00,2013-06-13 08:41:00,
2013-06-13 04:47:00,49.7,49.3,29.73,SSE,150,5.2,9.6,99,0.00,,,0.00,VWS V14.00,2013-06-13 08:47:00,
2013-06-13 04:56:00,49.7,49.5,29.73,SE,141,2.2,9.6,99,0.00,,,0.00,VWS V14.00,2013-06-13 08:56:00,
2013-06-13 05:02:00,49.6,49.3,29.72,SE,143,0.0,9.6,99,0.00,,,0.00,VWS V14.00,2013-06-13 09:02:00,
2013-06-13 05:05:00,49.7,49.4,29.72,SE,143,0.0,9.6,99,0.00,,,0.00,VWS V14.00,2013-06-13 09:05:00,
2013-06-13 05:06:00,49.5,48.9,29.75,SSE,152,4.2,9.6,98,0.00,,,0.00,VWS V14.00,2013-06-13 09:06:00,
2013-06-13 05:08:00,49.7,49.4,29.72,East,100,0.0,9.6,99,0.00,,,0.00,VWS V14.00,2013-06-13 09:08:00,
2013-06-13 05:11:00,49.6,49.3,29.72,SSE,162,6.0,9.6,99,0.00,,,0.00,VWS V14.00,2013-06-13 09:11:00,
2013-06-13 05:12:00,49.5,49.0,29.75,SE,145,0.0,9.6,98,0.00,,,0.00,VWS V14.00,2013-06-13 09:12:00,
2013-06-13 05:20:00,49.6,49.3,29.72,SE,125,0.0,9.6,99,0.00,,,0.00,VWS V14.00,2013-06-13 09:20:00,
2013-06-13 05:23:00,49.6,49.3,29.72,SE,125,0.0,9.6,99,0.00,,,0.00,VWS V14.00,2013-06-13 09:23:00,
2013-06-13 05:27:00,49.5,49.0,29.74,SSE,166,5.7,9.6,98,0.00,,,0.00,VWS V14.00,2013-06-13 09:27:00,
2013-06-13 05:33:00,49.7,49.3,29.74,South,170,5.0,9.6,98,0.00,,,0.00,VWS V14.00,2013-06-13 09:33:00,
2013-06-13 05:39:00,49.5,49.1,29.74,SSE,158,5.1,9.6,99,0.00,,,0.00,VWS V14.00,2013-06-13 09:39:00,
2013-06-13 05:45:00,49.5,49.2,29.73,SE,131,0.0,9.6,99,0.00,,,0.00,VWS V14.00,2013-06-13 09:45:00,
2013-06-13 05:47:00,50.4,50.2,29.74,SE,125,0.0,9.6,99,0.00,,,0.00,VWS V14.00,2013-06-13 09:47:00,
2013-06-13 05:53:00,50.5,50.3,29.74,SE,125,0.0,9.6,99,0.00,,,0.00,VWS V14.00,2013-06-13 09:53:00,
2013-06-13 05:54:00,49.7,49.5,29.72,SSE,149,0.0,9.6,99,0.00,,,0.00,VWS V14.00,2013-06-13 09:54:00,
2013-06-13 05:56:00,50.8,50.6,29.75,SE,125,0.0,9.6,99,0.00,,,0.00,VWS V14.00,2013-06-13 09:56:00,
2013-06-13 06:09:00,49.7,49.4,29.72,SE,125,0.0,9.6,99,0.00,,,0.00,VWS V14.00,2013-06-13 10:09:00,
2013-06-13 06:21:00,49.8,49.5,29.73,SE,125,0.0,9.6,99,0.00,,,0.00,VWS V14.00,2013-06-13 10:21:00,
2013-06-13 06:27:00,50.0,49.8,29.73,SE,125,0.0,9.6,99,0.00,,,0.00,VWS V14.00,2013-06-13 10:27:00,
2013-06-13 06:33:00,50.2,50.0,29.74,SE,125,0.0,9.6,99,0.00,,,0.00,VWS V14.00,2013-06-13 10:33:00,
2013-06-13 06:39:00,50.4,50.2,29.74,SE,125,0.0,9.6,99,0.00,,,0.00,VWS V14.00,2013-06-13 10:39:00,
2013-06-13 06:45:00,50.4,50.2,29.74,SE,125,0.0,9.6,99,0.00,,,0.00,VWS V14.00,2013-06-13 10:45:00,
2013-06-13 06:54:00,50.7,50.4,29.76,SE,125,0.0,9.6,99,0.00,,,0.00,VWS V14.00,2013-06-13 10:54:00,
2013-06-13 07:00:00,51.0,50.7,29.76,SE,125,0.0,9.6,99,0.00,,,0.00,VWS V14.00,2013-06-13 11:00:00,
2013-06-13 07:06:00,51.0,50.7,29.75,SE,125,0.0,9.6,99,0.00,,,0.00,VWS V14.00,2013-06-13 11:06:00,
2013-06-13 07:15:00,51.3,51.0,29.75,SE,125,0.0,9.6,99,0.00,,,0.00,VWS V14.00,2013-06-13 11:15:00,
2013-06-13 07:21:00,51.7,51.5,29.74,SE,125,0.0,9.6,99,0.00,,,0.00,VWS V14.00,2013-06-13 11:21:00,
2013-06-13 07:27:00,52.0,51.9,29.73,SE,125,0.0,9.6,100,0.00,,,0.00,VWS V14.00,2013-06-13 11:27:00,
2013-06-13 07:33:00,52.2,52.0,29.73,SSE,150,4.2,9.6,99,0.00,,,0.00,VWS V14.00,2013-06-13 11:33:00,
2013-06-13 07:39:00,52.5,52.4,29.73,SSE,160,3.0,9.6,100,0.00,,,0.00,VWS V14.00,2013-06-13 11:39:00,
2013-06-13 07:45:00,52.9,52.8,29.72,South,177,4.4,9.6,100,0.00,,,0.00,VWS V14.00,2013-06-13 11:45:00,
2013-06-13 07:51:00,53.5,53.3,29.73,SSE,162,0.0,9.6,99,0.00,,,0.00,VWS V14.00,2013-06-13 11:51:00,
2013-06-13 07:57:00,53.6,53.3,29.72,SSE,162,0.0,9.6,99,0.00,,,0.00,VWS V14.00,2013-06-13 11:57:00,
2013-06-13 08:03:00,54.2,53.8,29.73,SE,142,0.0,9.6,99,0.00,,,0.00,VWS V14.00,2013-06-13 12:03:00,
2013-06-13 08:09:00,54.6,54.2,29.72,SE,135,3.5,9.6,98,0.00,,,0.00,VWS V14.00,2013-06-13 12:09:00,
2013-06-13 08:15:00,55.0,54.5,29.71,SE,127,4.1,9.6,98,0.00,,,0.00,VWS V14.00,2013-06-13 12:15:00,
2013-06-13 08:21:00,55.8,55.1,29.72,East,90,0.0,9.6,98,0.00,,,0.00,VWS V14.00,2013-06-13 12:21:00,
2013-06-13 08:28:00,56.4,55.7,29.72,East,90,0.0,9.6,98,0.00,,,0.00,VWS V14.00,2013-06-13 12:28:00,
2013-06-13 08:34:00,57.1,56.2,29.72,East,90,0.0,9.6,97,0.00,,,0.00,VWS V14.00,2013-06-13 12:34:00,
2013-06-13 08:40:00,57.4,56.3,29.72,East,90,0.0,9.6,96,0.00,,,0.00,VWS V14.00,2013-06-13 12:40:00,
2013-06-13 08:46:00,57.8,56.5,29.72,East,90,0.0,9.6,96,0.00,,,0.00,VWS V14.00,2013-06-13 12:46:00,
2013-06-13 08:52:00,58.0,56.3,29.72,East,90,0.0,9.6,94,0.00,,,0.00,VWS V14.00,2013-06-13 12:52:00,
2013-06-13 08:58:00,57.9,56.0,29.72,East,90,0.0,9.6,94,0.00,,,0.00,VWS V14.00,2013-06-13 12:58:00,
2013-06-13 09:04:00,57.8,55.9,29.72,East,90,0.0,9.6,93,0.00,,,0.00,VWS V14.00,2013-06-13 13:04:00,
2013-06-13 09:10:00,57.7,55.8,29.72,East,90,0.0,9.6,93,0.00,,,0.00,VWS V14.00,2013-06-13 13:10:00,
2013-06-13 09:16:00,57.6,55.7,29.72,East,90,0.0,9.6,93,0.00,,,0.00,VWS V14.00,2013-06-13 13:16:00,
2013-06-13 09:22:00,57.7,55.8,29.72,East,90,0.0,9.6,93,0.00,,,0.00,VWS V14.00,2013-06-13 13:22:00,
2013-06-13 09:28:00,57.5,55.7,29.72,East,90,0.0,9.6,94,0.00,,,0.00,VWS V14.00,2013-06-13 13:28:00,
2013-06-13 09:34:00,57.6,55.7,29.72,East,90,0.0,9.6,93,0.00,,,0.00,VWS V14.00,2013-06-13 13:34:00,
2013-06-13 09:40:00,57.7,55.8,29.72,East,90,0.0,9.6,93,0.00,,,0.00,VWS V14.00,2013-06-13 13:40:00,
2013-06-13 09:46:00,57.6,55.7,29.71,East,90,0.0,9.6,93,0.00,,,0.00,VWS V14.00,2013-06-13 13:46:00,
2013-06-13 09:52:00,57.8,55.8,29.71,East,90,0.0,9.6,93,0.00,,,0.00,VWS V14.00,2013-06-13 13:52:00,
2013-06-13 09:58:00,57.8,55.9,29.71,East,90,0.0,9.6,93,0.00,,,0.00,VWS V14.00,2013-06-13 13:58:00,
2013-06-13 10:04:00,57.9,56.0,29.72,East,90,0.0,9.6,93,0.00,,,0.00,VWS V14.00,2013-06-13 14:04:00,
2013-06-13 10:10:00,58.1,56.1,29.72,East,90,0.0,9.6,93,0.00,,,0.00,VWS V14.00,2013-06-13 14:10:00,
2013-06-13 10:16:00,58.3,56.2,29.72,East,90,0.0,9.6,93,0.00,,,0.00,VWS V14.00,2013-06-13 14:16:00,
2013-06-13 10:22:00,58.5,56.4,29.73,East,90,0.0,9.6,93,0.00,,,0.00,VWS V14.00,2013-06-13 14:22:00,
2013-06-13 10:28:00,58.7,56.5,29.72,East,90,0.0,9.6,92,0.00,,,0.00,VWS V14.00,2013-06-13 14:28:00,
2013-06-13 10:34:00,58.8,56.6,29.72,East,90,0.0,9.6,92,0.00,,,0.00,VWS V14.00,2013-06-13 14:34:00,
2013-06-13 10:40:00,59.0,56.6,29.72,East,90,0.0,9.6,92,0.00,,,0.00,VWS V14.00,2013-06-13 14:40:00,
2013-06-13 10:46:00,59.1,56.6,29.71,East,90,0.0,9.6,91,0.00,,,0.00,VWS V14.00,2013-06-13 14:46:00,
2013-06-13 10:52:00,59.3,56.7,29.72,East,90,0.0,9.6,91,0.00,,,0.00,VWS V14.00,2013-06-13 14:52:00,
2013-06-13 10:58:00,59.5,56.9,29.72,East,90,0.0,9.6,91,0.00,,,0.00,VWS V14.00,2013-06-13 14:58:00,
2013-06-13 11:04:00,59.8,57.2,29.71,East,90,0.0,9.6,91,0.00,,,0.00,VWS V14.00,2013-06-13 15:04:00,
2013-06-13 11:10:00,60.0,57.1,29.71,East,90,0.0,9.6,90,0.00,,,0.00,VWS V14.00,2013-06-13 15:10:00,
2013-06-13 11:16:00,60.2,57.2,29.71,East,90,0.0,9.6,90,0.00,,,0.00,VWS V14.00,2013-06-13 15:16:00,
2013-06-13 11:22:00,60.4,57.2,29.71,East,90,0.0,9.6,89,0.00,,,0.00,VWS V14.00,2013-06-13 15:22:00,
2013-06-13 11:28:00,60.4,57.2,29.70,East,90,0.0,9.6,89,0.00,,,0.00,VWS V14.00,2013-06-13 15:28:00,
2013-06-13 11:34:00,60.5,57.3,29.71,East,90,0.0,9.6,89,0.00,,,0.00,VWS V14.00,2013-06-13 15:34:00,
2013-06-13 11:40:00,60.7,57.5,29.71,East,90,0.0,9.6,89,0.00,,,0.00,VWS V14.00,2013-06-13 15:40:00,
2013-06-13 11:46:00,60.6,57.1,29.71,East,90,0.0,9.6,88,0.00,,,0.00,VWS V14.00,2013-06-13 15:46:00,
2013-06-13 11:52:00,61.0,57.3,29.71,East,90,0.0,9.6,88,0.00,,,0.00,VWS V14.00,2013-06-13 15:52:00,
2013-06-13 11:58:00,61.0,57.1,29.71,East,90,0.0,9.6,87,0.00,,,0.00,VWS V14.00,2013-06-13 15:58:00,
2013-06-13 12:04:00,61.1,57.0,29.71,East,90,0.0,9.6,86,0.00,,,0.00,VWS V14.00,2013-06-13 16:04:00,
2013-06-13 12:10:00,61.1,57.0,29.71,East,90,0.0,9.6,86,0.00,,,0.00,VWS V14.00,2013-06-13 16:10:00,
2013-06-13 12:16:00,61.3,56.9,29.71,East,90,0.0,9.6,86,0.00,,,0.00,VWS V14.00,2013-06-13 16:16:00,
2013-06-13 12:22:00,61.2,56.7,29.71,East,90,0.0,9.6,85,0.00,,,0.00,VWS V14.00,2013-06-13 16:22:00,
2013-06-13 12:28:00,61.1,56.1,29.71,East,90,0.0,9.6,84,0.00,,,0.00,VWS V14.00,2013-06-13 16:28:00,
2013-06-13 12:34:00,61.0,55.9,29.71,East,90,0.0,9.6,83,0.00,,,0.00,VWS V14.00,2013-06-13 16:34:00,
2013-06-13 12:40:00,61.2,56.3,29.71,East,90,0.0,9.6,84,0.00,,,0.00,VWS V14.00,2013-06-13 16:40:00,
2013-06-13 12:46:00,61.4,56.5,29.71,East,90,0.0,9.6,84,0.00,,,0.00,VWS V14.00,2013-06-13 16:46:00,
2013-06-13 12:52:00,61.4,56.3,29.71,East,90,0.0,9.6,83,0.00,,,0.00,VWS V14.00,2013-06-13 16:52:00,
2013-06-13 12:58:00,61.4,56.1,29.70,East,90,0.0,9.6,83,0.00,,,0.00,VWS V14.00,2013-06-13 16:58:00,
2013-06-13 13:04:00,61.7,56.7,29.70,East,90,0.0,9.6,84,0.00,,,0.00,VWS V14.00,2013-06-13 17:04:00,
2013-06-13 13:10:00,61.8,56.4,29.70,East,90,0.0,9.6,82,0.00,,,0.00,VWS V14.00,2013-06-13 17:10:00,
2013-06-13 13:16:00,61.9,55.8,29.69,East,90,0.0,9.6,80,0.00,,,0.00,VWS V14.00,2013-06-13 17:16:00,
2013-06-13 13:23:00,62.0,55.1,29.69,East,90,0.0,9.6,78,0.00,,,0.00,VWS V14.00,2013-06-13 17:23:00,
2013-06-13 13:29:00,62.2,55.0,29.69,East,90,0.0,9.6,77,0.00,,,0.00,VWS V14.00,2013-06-13 17:29:00,
2013-06-13 13:35:00,62.1,54.1,29.69,South,172,0.0,9.6,75,0.00,,,0.00,VWS V14.00,2013-06-13 17:35:00,
2013-06-13 13:41:00,62.1,54.1,29.69,South,172,0.0,9.6,75,0.00,,,0.00,VWS V14.00,2013-06-13 17:41:00,
2013-06-13 13:47:00,62.1,53.6,29.68,South,172,0.0,9.6,74,0.00,,,0.00,VWS V14.00,2013-06-13 17:47:00,
2013-06-13 13:53:00,62.1,53.4,29.68,South,172,0.0,9.6,73,0.00,,,0.00,VWS V14.00,2013-06-13 17:53:00,
2013-06-13 13:59:00,62.0,53.5,29.67,South,172,0.0,9.6,74,0.00,,,0.00,VWS V14.00,2013-06-13 17:59:00,
2013-06-13 14:05:00,62.0,53.4,29.67,South,172,0.0,9.6,73,0.00,,,0.00,VWS V14.00,2013-06-13 18:05:00,
2013-06-13 14:11:00,62.1,53.8,29.67,SE,124,0.0,9.6,74,0.00,,,0.00,VWS V14.00,2013-06-13 18:11:00,
2013-06-13 14:17:00,62.1,53.7,29.67,East,98,0.0,9.6,74,0.00,,,0.00,VWS V14.00,2013-06-13 18:17:00,
2013-06-13 14:23:00,62.1,53.8,29.68,ESE,103,2.5,9.6,74,0.00,,,0.00,VWS V14.00,2013-06-13 18:23:00,
2013-06-13 14:29:00,62.0,53.7,29.67,ESE,115,0.0,12.1,74,0.00,,,0.00,VWS V14.00,2013-06-13 18:29:00,
2013-06-13 14:35:00,62.1,54.7,29.68,SE,145,6.7,12.1,77,0.00,,,0.00,VWS V14.00,2013-06-13 18:35:00,
2013-06-13 14:41:00,62.0,54.5,29.67,South,188,5.0,12.1,76,0.00,,,0.00,VWS V14.00,2013-06-13 18:41:00,
2013-06-13 14:47:00,61.8,53.5,29.67,SSE,167,5.2,12.1,74,0.00,,,0.00,VWS V14.00,2013-06-13 18:47:00,
2013-06-13 14:53:00,61.7,53.8,29.67,NE,39,0.0,12.1,75,0.00,,,0.00,VWS V14.00,2013-06-13 18:53:00,
2013-06-13 14:59:00,61.8,54.3,29.67,ENE,77,0.0,12.1,76,0.00,,,0.00,VWS V14.00,2013-06-13 18:59:00,
2013-06-13 15:05:00,61.9,54.4,29.68,SW,221,0.0,12.1,76,0.00,,,0.00,VWS V14.00,2013-06-13 19:05:00,
2013-06-13 15:11:00,61.8,53.4,29.68,SE,138,0.0,12.1,74,0.00,,,0.00,VWS V14.00,2013-06-13 19:11:00,
2013-06-13 15:17:00,61.8,53.6,29.68,SE,138,0.0,12.1,74,0.00,,,0.00,VWS V14.00,2013-06-13 19:17:00,
2013-06-13 15:23:00,61.9,54.2,29.67,SE,138,0.0,12.1,76,0.00,,,0.00,VWS V14.00,2013-06-13 19:23:00,
2013-06-13 15:29:00,61.8,54.1,29.67,SE,138,0.0,12.1,76,0.00,,,0.00,VWS V14.00,2013-06-13 19:29:00,
2013-06-13 15:35:00,61.9,54.3,29.67,SE,146,0.0,12.1,76,0.00,,,0.00,VWS V14.00,2013-06-13 19:35:00,
2013-06-13 15:41:00,61.7,54.1,29.67,SE,146,0.0,12.1,76,0.00,,,0.00,VWS V14.00,2013-06-13 19:41:00,
2013-06-13 15:47:00,61.8,54.3,29.68,SE,146,0.0,12.1,76,0.00,,,0.00,VWS V14.00,2013-06-13 19:47:00,
2013-06-13 15:53:00,61.6,54.2,29.68,SE,146,0.0,12.1,76,0.00,,,0.00,VWS V14.00,2013-06-13 19:53:00,
2013-06-13 15:59:00,61.6,54.2,29.68,SE,146,0.0,12.1,76,0.00,,,0.00,VWS V14.00,2013-06-13 19:59:00,
2013-06-13 16:05:00,61.6,54.3,29.68,SE,146,0.0,12.1,77,0.00,,,0.00,VWS V14.00,2013-06-13 20:05:00,
2013-06-13 16:11:00,61.5,54.3,29.68,SE,146,0.0,12.1,77,0.00,,,0.00,VWS V14.00,2013-06-13 20:11:00,
2013-06-13 16:17:00,61.6,54.7,29.69,SE,146,0.0,12.1,78,0.00,,,0.00,VWS V14.00,2013-06-13 20:17:00,
2013-06-13 16:23:00,61.4,54.3,29.69,SE,146,0.0,12.1,78,0.00,,,0.00,VWS V14.00,2013-06-13 20:23:00,
2013-06-13 16:29:00,61.1,53.8,29.69,SE,146,0.0,12.1,77,0.00,,,0.00,VWS V14.00,2013-06-13 20:29:00,
2013-06-13 16:36:00,60.8,53.6,29.69,SSW,194,0.0,12.1,77,0.00,,,0.00,VWS V14.00,2013-06-13 20:36:00,
2013-06-13 16:42:00,60.7,53.9,29.69,North,3,0.0,12.1,78,0.00,,,0.00,VWS V14.00,2013-06-13 20:42:00,
2013-06-13 16:48:00,60.5,54.1,29.69,North,3,0.0,12.1,79,0.00,,,0.00,VWS V14.00,2013-06-13 20:48:00,
2013-06-13 16:54:00,60.3,54.1,29.69,North,3,0.0,12.1,80,0.00,,,0.00,VWS V14.00,2013-06-13 20:54:00,
2013-06-13 17:00:00,60.1,54.1,29.69,North,3,0.0,12.1,80,0.00,,,0.00,VWS V14.00,2013-06-13 21:00:00,
2013-06-13 17:06:00,59.8,54.0,29.69,North,3,0.0,12.1,81,0.00,,,0.00,VWS V14.00,2013-06-13 21:06:00,
2013-06-13 17:12:00,59.6,54.2,29.69,North,3,0.0,12.1,82,0.00,,,0.00,VWS V14.00,2013-06-13 21:12:00,
2013-06-13 17:18:00,59.4,54.5,29.69,North,3,0.0,12.1,84,0.00,,,0.00,VWS V14.00,2013-06-13 21:18:00,
2013-06-13 17:24:00,59.5,54.8,29.69,North,3,0.0,12.1,84,0.00,,,0.00,VWS V14.00,2013-06-13 21:24:00,
2013-06-13 17:30:00,59.4,55.0,29.69,North,3,0.0,12.1,85,0.00,,,0.00,VWS V14.00,2013-06-13 21:30:00,
2013-06-13 17:36:00,59.3,55.0,29.69,North,3,0.0,12.1,86,0.00,,,0.00,VWS V14.00,2013-06-13 21:36:00,
2013-06-13 17:42:00,59.2,55.0,29.69,North,3,0.0,12.1,86,0.00,,,0.00,VWS V14.00,2013-06-13 21:42:00,
2013-06-13 17:48:00,59.1,55.2,29.69,North,3,0.0,12.1,87,0.00,,,0.00,VWS V14.00,2013-06-13 21:48:00,
2013-06-13 17:54:00,58.9,55.2,29.69,North,3,0.0,12.1,87,0.00,,,0.00,VWS V14.00,2013-06-13 21:54:00,
2013-06-13 18:00:00,58.7,55.0,29.69,North,3,0.0,12.1,88,0.00,,,0.00,VWS V14.00,2013-06-13 22:00:00,
2013-06-13 18:06:00,58.5,54.8,29.69,North,3,0.0,12.1,87,0.00,,,0.00,VWS V14.00,2013-06-13 22:06:00,
2013-06-13 18:12:00,58.4,54.9,29.69,North,3,0.0,12.1,88,0.00,,,0.00,VWS V14.00,2013-06-13 22:12:00,
2013-06-13 18:18:00,58.2,54.9,29.69,North,3,0.0,12.1,89,0.00,,,0.00,VWS V14.00,2013-06-13 22:18:00,
2013-06-13 18:24:00,58.1,54.8,29.69,North,3,0.0,12.1,89,0.00,,,0.00,VWS V14.00,2013-06-13 22:24:00,
2013-06-13 18:30:00,57.9,54.8,29.69,North,3,0.0,12.1,89,0.00,,,0.00,VWS V14.00,2013-06-13 22:30:00,
2013-06-13 18:36:00,57.8,54.9,29.69,North,3,0.0,12.1,90,0.00,,,0.00,VWS V14.00,2013-06-13 22:36:00,
2013-06-13 18:42:00,57.7,54.9,29.69,North,3,0.0,12.1,90,0.00,,,0.00,VWS V14.00,2013-06-13 22:42:00,
2013-06-13 18:48:00,57.7,55.1,29.69,North,3,0.0,12.1,91,0.00,,,0.00,VWS V14.00,2013-06-13 22:48:00,
2013-06-13 18:54:00,57.4,54.7,29.69,North,3,0.0,12.1,91,0.00,,,0.00,VWS V14.00,2013-06-13 22:54:00,
2013-06-13 19:00:00,57.3,54.8,29.69,North,3,0.0,12.1,91,0.00,,,0.00,VWS V14.00,2013-06-13 23:00:00,
2013-06-13 19:06:00,57.1,54.7,29.70,North,3,0.0,12.1,92,0.00,,,0.00,VWS V14.00,2013-06-13 23:06:00,
2013-06-13 19:12:00,57.1,54.7,29.70,North,3,0.0,12.1,92,0.00,,,0.00,VWS V14.00,2013-06-13 23:12:00,
2013-06-13 19:18:00,57.0,54.7,29.70,North,3,0.0,12.1,92,0.00,,,0.00,VWS V14.00,2013-06-13 23:18:00,
2013-06-13 19:25:00,57.0,54.9,29.70,North,3,0.0,12.1,93,0.00,,,0.00,VWS V14.00,2013-06-13 23:25:00,
2013-06-13 19:31:00,56.9,54.8,29.69,North,3,0.0,12.1,93,0.00,,,0.00,VWS V14.00,2013-06-13 23:31:00,
2013-06-13 19:37:00,56.8,54.8,29.69,North,3,0.0,12.1,93,0.00,,,0.00,VWS V14.00,2013-06-13 23:37:00,
2013-06-13 19:43:00,56.8,54.8,29.69,North,3,0.0,12.1,93,0.00,,,0.00,VWS V14.00,2013-06-13 23:43:00,
2013-06-13 19:49:00,56.6,54.6,29.70,North,3,0.0,12.1,93,0.00,,,0.00,VWS V14.00,2013-06-13 23:49:00,
2013-06-13 19:55:00,56.6,54.7,29.69,North,3,0.0,12.1,93,0.00,,,0.00,VWS V14.00,2013-06-13 23:55:00,
2013-06-13 20:01:00,56.4,54.5,29.69,North,3,0.0,12.1,94,0.00,,,0.00,VWS V14.00,2013-06-14 00:01:00,
2013-06-13 20:07:00,56.4,54.6,29.69,North,3,0.0,12.1,94,0.00,,,0.00,VWS V14.00,2013-06-14 00:07:00,
2013-06-13 20:13:00,56.4,54.6,29.69,North,3,0.0,12.1,94,0.00,,,0.00,VWS V14.00,2013-06-14 00:13:00,
2013-06-13 20:19:00,56.1,54.4,29.70,North,3,0.0,12.1,94,0.00,,,0.00,VWS V14.00,2013-06-14 00:19:00,
2013-06-13 20:25:00,56.0,54.3,29.70,North,3,0.0,12.1,94,0.00,,,0.00,VWS V14.00,2013-06-14 00:25:00,
2013-06-13 20:31:00,55.9,54.3,29.70,North,3,0.0,12.1,94,0.00,,,0.00,VWS V14.00,2013-06-14 00:31:00,
2013-06-13 20:37:00,55.8,54.2,29.70,North,3,0.0,12.1,94,0.00,,,0.00,VWS V14.00,2013-06-14 00:37:00,
2013-06-13 20:43:00,55.8,54.3,29.70,North,3,0.0,12.1,95,0.00,,,0.00,VWS V14.00,2013-06-14 00:43:00,
2013-06-13 20:49:00,55.8,54.3,29.69,North,3,0.0,12.1,95,0.00,,,0.00,VWS V14.00,2013-06-14 00:49:00,
2013-06-13 20:55:00,55.9,54.4,29.69,North,3,0.0,12.1,95,0.00,,,0.00,VWS V14.00,2013-06-14 00:55:00,
2013-06-13 21:01:00,56.0,54.4,29.69,North,3,0.0,12.1,94,0.00,,,0.00,VWS V14.00,2013-06-14 01:01:00,
2013-06-13 21:07:00,56.0,54.3,29.70,North,3,0.0,12.1,94,0.00,,,0.00,VWS V14.00,2013-06-14 01:07:00,
2013-06-13 21:13:00,56.0,54.3,29.69,North,3,0.0,12.1,94,0.00,,,0.00,VWS V14.00,2013-06-14 01:13:00,
2013-06-13 21:19:00,56.0,54.2,29.69,North,3,0.0,12.1,94,0.00,,,0.00,VWS V14.00,2013-06-14 01:19:00,
2013-06-13 21:25:00,55.9,54.1,29.69,North,3,0.0,12.1,94,0.00,,,0.00,VWS V14.00,2013-06-14 01:25:00,
2013-06-13 21:31:00,55.8,54.0,29.69,NE,49,0.0,12.1,94,0.00,,,0.00,VWS V14.00,2013-06-14 01:31:00,
2013-06-13 21:37:00,55.7,53.9,29.69,ESE,104,0.0,12.1,94,0.00,,,0.00,VWS V14.00,2013-06-14 01:37:00,
2013-06-13 21:43:00,55.4,53.5,29.69,SE,145,0.0,12.1,93,0.00,,,0.00,VWS V14.00,2013-06-14 01:43:00,
2013-06-13 21:49:00,55.3,53.5,29.69,SSE,158,0.0,12.1,94,0.00,,,0.00,VWS V14.00,2013-06-14 01:49:00,
2013-06-13 21:55:00,55.3,53.5,29.69,SSE,158,0.0,12.1,94,0.00,,,0.00,VWS V14.00,2013-06-14 01:55:00,
2013-06-13 22:01:00,55.1,53.3,29.70,SSE,158,0.0,12.1,94,0.00,,,0.00,VWS V14.00,2013-06-14 02:01:00,
2013-06-13 22:07:00,55.0,53.3,29.70,SSE,158,0.0,12.1,94,0.00,,,0.00,VWS V14.00,2013-06-14 02:07:00,
2013-06-13 22:13:00,55.0,53.4,29.70,SSE,158,0.0,12.1,94,0.00,,,0.00,VWS V14.00,2013-06-14 02:13:00,
2013-06-13 22:19:00,54.9,53.3,29.70,SSE,158,0.0,12.1,94,0.00,,,0.00,VWS V14.00,2013-06-14 02:19:00,
2013-06-13 22:25:00,54.8,53.2,29.70,SSE,158,0.0,12.1,94,0.00,,,0.00,VWS V14.00,2013-06-14 02:25:00,
2013-06-13 22:31:00,54.8,53.2,29.71,SSE,158,0.0,12.1,94,0.00,,,0.00,VWS V14.00,2013-06-14 02:31:00,
2013-06-13 22:37:00,54.8,53.2,29.70,SSE,158,0.0,12.1,94,0.00,,,0.00,VWS V14.00,2013-06-14 02:37:00,
2013-06-13 22:43:00,54.8,53.3,29.70,SSE,158,0.0,12.1,95,0.00,,,0.00,VWS V14.00,2013-06-14 02:43:00,
2013-06-13 22:49:00,54.9,53.3,29.70,SSE,158,0.0,12.1,94,0.00,,,0.00,VWS V14.00,2013-06-14 02:49:00,
2013-06-13 22:55:00,54.8,53.2,29.70,SSE,158,0.0,12.1,94,0.00,,,0.00,VWS V14.00,2013-06-14 02:55:00,
2013-06-13 23:01:00,54.5,52.9,29.70,SSE,158,0.0,12.1,94,0.00,,,0.00,VWS V14.00,2013-06-14 03:01:00,
2013-06-13 23:07:00,54.4,52.9,29.70,SSE,158,0.0,12.1,95,0.00,,,0.00,VWS V14.00,2013-06-14 03:07:00,
2013-06-13 23:13:00,54.5,53.1,29.70,SSE,158,0.0,12.1,95,0.00,,,0.00,VWS V14.00,2013-06-14 03:13:00,
2013-06-13 23:19:00,54.5,53.1,29.70,SSE,158,0.0,12.1,95,0.00,,,0.00,VWS V14.00,2013-06-14 03:19:00,
2013-06-13 23:25:00,54.8,53.4,29.69,SSE,158,0.0,12.1,95,0.00,,,0.00,VWS V14.00,2013-06-14 03:25:00,
2013-06-13 23:31:00,54.8,53.4,29.69,SSE,158,0.0,12.1,95,0.00,,,0.00,VWS V14.00,2013-06-14 03:31:00,
2013-06-13 23:37:00,55.0,53.5,29.69,SSE,158,0.0,0.0,95,0.00,,,0.00,VWS V14.00,2013-06-14 03:37:00,
2013-06-13 23:40:00,54.8,52.5,29.81,SSE,148,4.2,9.9,92,0.00,,,0.00,VWS V14.00,2013-06-14 03:40:00,
2013-06-13 23:43:00,54.9,53.4,29.69,SSE,158,0.0,0.0,95,0.00,,,0.00,VWS V14.00,2013-06-14 03:43:00,
2013-06-13 23:49:00,54.9,53.3,29.69,SSE,158,0.0,0.0,94,0.00,,,0.00,VWS V14.00,2013-06-14 03:49:00,
2013-06-13 23:50:00,54.3,52.0,29.80,SSE,165,5.3,6.9,92,0.00,,,0.00,VWS V14.00,2013-06-14 03:50:00,
2013-06-13 23:55:00,54.7,53.2,29.69,SSE,158,0.0,0.0,94,0.00,,,0.00,VWS V14.00,2013-06-14 03:55:00,